createdAt,value
2019-03-12T00:00:46.020Z,3.28
2019-03-12T00:01:54.083Z,3.28
2019-03-12T00:03:02.062Z,3.27
2019-03-12T00:04:09.994Z,3.28
2019-03-12T00:05:18.100Z,3.28
2019-03-12T00:06:26.094Z,3.29
2019-03-12T00:07:33.935Z,3.28
2019-03-12T00:08:42.173Z,3.25
2019-03-12T00:09:50.048Z,3.29
2019-03-12T00:10:58.175Z,3.28
2019-03-12T00:12:06.267Z,3.26
2019-03-12T00:13:14.145Z,3.24
2019-03-12T00:14:21.946Z,3.26
2019-03-12T00:15:29.932Z,3.24
2019-03-12T00:16:38.030Z,3.24
2019-03-12T00:17:46.134Z,3.26
2019-03-12T00:18:54.220Z,3.27
2019-03-12T00:20:02.063Z,3.28
2019-03-12T00:21:09.885Z,3.29
2019-03-12T00:22:17.896Z,3.28
2019-03-12T00:23:25.898Z,3.28
2019-03-12T00:24:34.115Z,3.26
2019-03-12T00:25:42.717Z,3.27
2019-03-12T00:26:50.653Z,3.30
2019-03-12T00:27:58.709Z,3.30
2019-03-12T00:29:06.959Z,3.31
2019-03-12T00:30:15.137Z,3.31
2019-03-12T00:31:23.392Z,3.31
2019-03-12T00:32:31.827Z,3.32
2019-03-12T00:33:40.215Z,3.31
2019-03-12T00:34:48.282Z,3.34
2019-03-12T00:35:56.226Z,3.37
2019-03-12T00:37:04.270Z,3.38
2019-03-12T00:38:12.113Z,3.41
2019-03-12T00:39:20.053Z,3.41
2019-03-12T00:40:28.067Z,3.43
2019-03-12T00:41:36.165Z,3.44
2019-03-12T00:42:44.182Z,3.45
2019-03-12T00:43:52.251Z,3.45
2019-03-12T00:45:00.025Z,3.47
2019-03-12T00:46:08.139Z,3.49
2019-03-12T00:47:16.129Z,3.49
2019-03-12T00:48:24.026Z,3.51
2019-03-12T00:49:32.070Z,3.49
2019-03-12T00:50:39.970Z,3.52
2019-03-12T00:51:47.992Z,3.52
2019-03-12T00:52:55.848Z,3.54
2019-03-12T00:54:03.912Z,3.53
2019-03-12T00:55:12.316Z,3.59
2019-03-12T00:56:20.144Z,3.59
2019-03-12T00:57:28.152Z,3.58
2019-03-12T00:58:36.327Z,3.58
2019-03-12T00:59:44.429Z,3.58
2019-03-12T01:00:52.884Z,3.62
2019-03-12T01:02:00.983Z,3.65
2019-03-12T01:03:08.839Z,3.65
2019-03-12T01:04:17.002Z,3.63
2019-03-12T01:05:24.958Z,3.63
2019-03-12T01:06:32.823Z,3.66
2019-03-12T01:07:41.086Z,3.67
2019-03-12T01:08:49.397Z,3.70
2019-03-12T01:09:57.303Z,3.69
2019-03-12T01:11:05.619Z,3.69
2019-03-12T01:12:13.550Z,3.71
2019-03-12T01:13:21.428Z,3.71
2019-03-12T01:14:29.436Z,3.70
2019-03-12T01:15:37.286Z,3.70
2019-03-12T01:16:45.187Z,3.68
2019-03-12T01:17:53.459Z,3.68
2019-03-12T01:19:01.695Z,3.67
2019-03-12T01:20:15.492Z,3.68
2019-03-12T01:21:23.478Z,3.68
2019-03-12T01:22:31.312Z,3.68
2019-03-12T01:23:39.475Z,3.65
2019-03-12T01:24:47.568Z,3.65
2019-03-12T01:25:55.552Z,3.64
2019-03-12T01:27:03.756Z,3.63
2019-03-12T01:28:11.964Z,3.59
2019-03-12T01:29:20.250Z,3.53
2019-03-12T01:30:28.484Z,3.52
2019-03-12T01:31:36.752Z,3.53
2019-03-12T01:32:44.590Z,3.51
2019-03-12T01:33:52.547Z,3.51
2019-03-12T01:35:00.751Z,3.52
2019-03-12T01:36:08.914Z,3.51
2019-03-12T01:37:16.860Z,3.50
2019-03-12T01:38:24.761Z,3.50
2019-03-12T01:39:32.525Z,3.49
2019-03-12T01:40:40.424Z,3.51
2019-03-12T01:41:48.495Z,3.49
2019-03-12T01:42:56.504Z,3.51
2019-03-12T01:44:04.808Z,3.52
2019-03-12T01:45:15.157Z,3.54
2019-03-12T01:46:23.094Z,3.53
2019-03-12T01:47:31.139Z,3.52
2019-03-12T01:48:39.040Z,3.52
2019-03-12T01:49:47.249Z,3.50
2019-03-12T01:50:55.027Z,3.52
2019-03-12T01:52:03.315Z,3.53
2019-03-12T01:53:11.517Z,3.52
2019-03-12T01:54:19.375Z,3.53
2019-03-12T01:55:27.127Z,3.51
2019-03-12T01:56:34.945Z,3.51
2019-03-12T01:57:43.146Z,3.49
2019-03-12T01:58:51.602Z,3.50
2019-03-12T01:59:59.685Z,3.50
2019-03-12T02:01:07.686Z,3.49
2019-03-12T02:02:15.762Z,3.49
2019-03-12T02:03:23.976Z,3.51
2019-03-12T02:04:31.967Z,3.51
2019-03-12T02:05:40.082Z,3.51
2019-03-12T02:06:48.055Z,3.52
2019-03-12T02:07:56.233Z,3.50
2019-03-12T02:09:05.027Z,3.50
2019-03-12T02:10:15.092Z,3.52
2019-03-12T02:11:23.095Z,3.50
2019-03-12T02:12:31.217Z,3.51
2019-03-12T02:13:39.065Z,3.50
2019-03-12T02:14:47.144Z,3.52
2019-03-12T02:15:55.488Z,3.53
2019-03-12T02:17:03.498Z,3.54
2019-03-12T02:18:11.904Z,3.56
2019-03-12T02:19:19.832Z,3.54
2019-03-12T02:20:27.990Z,3.55
2019-03-12T02:21:35.986Z,3.57
2019-03-12T02:22:44.012Z,3.56
2019-03-12T02:23:52.887Z,3.57
2019-03-12T02:25:00.989Z,3.59
2019-03-12T02:26:09.090Z,3.60
2019-03-12T02:27:17.090Z,3.59
2019-03-12T02:28:24.881Z,3.62
2019-03-12T02:29:32.915Z,3.63
2019-03-12T02:30:41.051Z,3.66
2019-03-12T02:31:48.919Z,3.69
2019-03-12T02:32:57.055Z,3.70
2019-03-12T02:34:05.140Z,3.71
2019-03-12T02:35:13.122Z,3.72
2019-03-12T02:36:21.122Z,3.72
2019-03-12T02:37:29.133Z,3.76
2019-03-12T02:38:37.048Z,3.77
2019-03-12T02:39:44.941Z,3.78
2019-03-12T02:40:53.074Z,3.80
2019-03-12T02:42:01.175Z,3.80
2019-03-12T02:43:09.118Z,3.80
2019-03-12T02:44:17.138Z,3.83
2019-03-12T02:45:25.498Z,3.84
2019-03-12T02:46:33.506Z,3.85
2019-03-12T02:47:41.382Z,3.84
2019-03-12T02:48:49.541Z,3.86
2019-03-12T02:49:57.812Z,3.89
2019-03-12T02:51:05.828Z,3.89
2019-03-12T02:52:14.039Z,3.90
2019-03-12T02:53:21.903Z,3.93
2019-03-12T02:54:29.815Z,3.93
2019-03-12T02:55:37.525Z,3.94
2019-03-12T02:56:45.525Z,3.93
2019-03-12T02:57:53.980Z,3.96
2019-03-12T02:59:02.467Z,3.94
2019-03-12T03:00:18.499Z,3.94
2019-03-12T03:01:26.359Z,3.94
2019-03-12T03:02:34.248Z,3.95
2019-03-12T03:03:42.199Z,3.94
2019-03-12T03:04:54.053Z,3.94
2019-03-12T03:06:04.250Z,3.94
2019-03-12T03:07:14.324Z,3.96
2019-03-12T03:08:24.035Z,3.92
2019-03-12T03:09:32.050Z,3.94
2019-03-12T03:10:40.110Z,3.95
2019-03-12T03:11:50.879Z,3.95
2019-03-12T03:12:57.986Z,3.95
2019-03-12T03:14:05.952Z,3.97
2019-03-12T03:15:32.089Z,3.99
2019-03-12T03:16:39.968Z,4.00
2019-03-12T03:17:47.885Z,4.03
2019-03-12T03:18:56.458Z,4.04
2019-03-12T03:20:05.783Z,4.04
2019-03-12T03:21:13.816Z,4.03
2019-03-12T03:22:21.867Z,4.04
2019-03-12T03:23:29.940Z,4.05
2019-03-12T03:24:38.131Z,4.03
2019-03-12T03:25:46.291Z,4.01
2019-03-12T03:26:54.210Z,4.01
2019-03-12T03:28:02.379Z,4.02
2019-03-12T03:29:10.428Z,4.02
2019-03-12T03:30:26.270Z,4.02
2019-03-12T03:31:34.456Z,4.04
2019-03-12T03:32:42.546Z,4.06
2019-03-12T03:33:50.556Z,4.08
2019-03-12T03:34:58.658Z,4.09
2019-03-12T03:36:06.753Z,4.11
2019-03-12T03:37:14.934Z,4.08
2019-03-12T03:38:22.908Z,4.10
2019-03-12T03:39:30.961Z,4.10
2019-03-12T03:40:39.065Z,4.11
2019-03-12T03:41:47.249Z,4.08
2019-03-12T03:42:55.241Z,4.10
2019-03-12T03:44:03.622Z,4.10
2019-03-12T03:45:12.221Z,4.08
2019-03-12T03:46:20.303Z,4.09
2019-03-12T03:47:28.308Z,4.10
2019-03-12T03:48:36.892Z,4.11
2019-03-12T03:49:44.913Z,4.11
2019-03-12T03:50:52.988Z,4.11
2019-03-12T03:52:01.740Z,4.10
2019-03-12T03:53:09.835Z,4.09
2019-03-12T03:54:17.805Z,4.11
2019-03-12T03:55:25.759Z,4.10
2019-03-12T03:56:34.017Z,4.11
2019-03-12T03:57:42.123Z,4.13
2019-03-12T03:58:50.082Z,4.12
2019-03-12T03:59:59.644Z,4.15
2019-03-12T04:01:07.751Z,4.17
2019-03-12T04:02:15.846Z,4.19
2019-03-12T04:03:24.180Z,4.19
2019-03-12T04:04:32.129Z,4.21
2019-03-12T04:05:40.222Z,4.22
2019-03-12T04:06:48.123Z,4.23
2019-03-12T04:07:56.066Z,4.23
2019-03-12T04:09:04.931Z,4.25
2019-03-12T04:10:17.051Z,4.24
2019-03-12T04:11:25.215Z,4.25
2019-03-12T04:12:33.418Z,4.28
2019-03-12T04:13:41.461Z,4.27
2019-03-12T04:14:49.327Z,4.31
2019-03-12T04:15:57.701Z,4.30
2019-03-12T04:17:05.794Z,4.28
2019-03-12T04:18:13.997Z,4.29
2019-03-12T04:19:21.977Z,4.34
2019-03-12T04:20:30.036Z,4.30
2019-03-12T04:21:38.275Z,4.29
2019-03-12T04:22:46.567Z,4.29
2019-03-12T04:23:54.577Z,4.26
2019-03-12T04:25:02.887Z,4.26
2019-03-12T04:26:12.211Z,4.26
2019-03-12T04:27:20.289Z,4.25
2019-03-12T04:28:28.207Z,4.25
2019-03-12T04:29:36.152Z,4.25
2019-03-12T04:30:44.086Z,4.24
2019-03-12T04:31:52.095Z,4.27
2019-03-12T04:33:00.063Z,4.23
2019-03-12T04:34:13.092Z,4.22
2019-03-12T04:35:25.935Z,4.19
2019-03-12T04:36:34.244Z,4.15
2019-03-12T04:37:42.271Z,4.14
2019-03-12T04:38:50.594Z,4.12
2019-03-12T04:39:58.468Z,4.13
2019-03-12T04:41:06.984Z,4.10
2019-03-12T04:42:14.936Z,4.09
2019-03-12T04:43:23.023Z,4.07
2019-03-12T04:44:31.079Z,4.10
2019-03-12T04:45:39.059Z,4.09
2019-03-12T04:46:47.067Z,4.08
2019-03-12T04:47:55.375Z,4.07
2019-03-12T04:49:03.672Z,4.07
2019-03-12T04:50:11.941Z,4.09
2019-03-12T04:51:20.156Z,4.09
2019-03-12T04:52:28.037Z,4.08
2019-03-12T04:53:37.612Z,4.10
2019-03-12T04:54:45.880Z,4.09
2019-03-12T04:55:53.840Z,4.08
2019-03-12T04:57:02.300Z,4.08
2019-03-12T04:58:10.396Z,4.08
2019-03-12T04:59:18.793Z,4.10
2019-03-12T05:00:27.411Z,4.07
2019-03-12T05:01:36.817Z,4.07
2019-03-12T05:02:44.730Z,4.06
2019-03-12T05:03:52.637Z,4.06
2019-03-12T05:05:00.836Z,4.07
2019-03-12T05:06:08.919Z,4.07
2019-03-12T05:07:17.131Z,4.08
2019-03-12T05:08:25.177Z,4.06
2019-03-12T05:09:33.223Z,4.07
2019-03-12T05:10:41.488Z,4.08
2019-03-12T05:11:49.442Z,4.08
2019-03-12T05:12:57.330Z,4.08
2019-03-12T05:14:29.540Z,4.09
2019-03-12T05:15:37.430Z,4.06
2019-03-12T05:16:45.485Z,4.05
2019-03-12T05:17:53.326Z,4.01
2019-03-12T05:19:01.213Z,4.03
2019-03-12T05:20:13.145Z,4.02
2019-03-12T05:21:21.013Z,4.03
2019-03-12T05:22:28.923Z,4.00
2019-03-12T05:23:38.393Z,4.01
2019-03-12T05:24:46.303Z,4.05
2019-03-12T05:25:54.130Z,4.00
2019-03-12T05:27:02.106Z,3.99
2019-03-12T05:28:10.471Z,3.97
2019-03-12T05:29:18.690Z,3.96
2019-03-12T05:30:26.692Z,3.94
2019-03-12T05:31:34.960Z,3.93
2019-03-12T05:32:43.008Z,3.90
2019-03-12T05:33:50.975Z,3.89
2019-03-12T05:34:59.053Z,3.88
2019-03-12T05:36:07.593Z,3.87
2019-03-12T05:37:15.629Z,3.87
2019-03-12T05:38:23.892Z,3.88
2019-03-12T05:39:32.030Z,3.87
2019-03-12T05:40:40.602Z,3.88
2019-03-12T05:41:48.924Z,3.86
2019-03-12T05:42:56.907Z,3.87
2019-03-12T05:44:04.894Z,3.89
2019-03-12T05:45:20.358Z,3.90
2019-03-12T05:46:28.722Z,3.90
2019-03-12T05:47:36.760Z,3.91
2019-03-12T05:48:44.798Z,3.90
2019-03-12T05:49:52.938Z,3.91
2019-03-12T05:51:01.068Z,3.93
2019-03-12T05:52:09.042Z,3.93
2019-03-12T05:53:17.060Z,3.94
2019-03-12T05:54:25.545Z,3.97
2019-03-12T05:55:33.819Z,3.98
2019-03-12T05:56:42.055Z,3.96
2019-03-12T05:57:50.326Z,3.96
2019-03-12T05:58:58.202Z,3.97
2019-03-12T06:00:20.688Z,3.96
2019-03-12T06:01:28.788Z,3.95
2019-03-12T06:02:36.883Z,3.92
2019-03-12T06:03:44.774Z,3.91
2019-03-12T06:04:52.762Z,3.92
2019-03-12T06:06:00.965Z,3.93
2019-03-12T06:07:09.599Z,3.92
2019-03-12T06:08:17.865Z,3.96
2019-03-12T06:09:30.473Z,3.99
2019-03-12T06:10:35.917Z,4.01
2019-03-12T06:11:44.065Z,4.00
2019-03-12T06:12:52.031Z,4.02
2019-03-12T06:13:59.999Z,4.05
2019-03-12T06:15:18.561Z,4.09
2019-03-12T06:16:26.744Z,4.11
2019-03-12T06:17:34.823Z,4.12
2019-03-12T06:18:42.780Z,4.12
2019-03-12T06:19:51.028Z,4.15
2019-03-12T06:20:59.226Z,4.11
2019-03-12T06:22:07.252Z,4.10
2019-03-12T06:23:15.462Z,4.11
2019-03-12T06:24:23.607Z,4.12
2019-03-12T06:25:32.025Z,4.12
2019-03-12T06:26:41.041Z,4.10
2019-03-12T06:27:49.445Z,4.14
2019-03-12T06:28:57.493Z,4.12
2019-03-12T06:30:14.197Z,4.12
2019-03-12T06:31:40.654Z,4.16
2019-03-12T06:32:56.129Z,4.20
2019-03-12T06:34:06.175Z,4.24
2019-03-12T06:35:16.224Z,4.29
2019-03-12T06:36:33.016Z,4.34
2019-03-12T06:37:49.824Z,4.37
2019-03-12T06:38:59.546Z,4.44
2019-03-12T06:40:11.052Z,4.46
2019-03-12T06:41:26.489Z,4.49
2019-03-12T06:42:36.342Z,4.50
2019-03-12T06:43:46.077Z,4.51
2019-03-12T06:45:07.940Z,4.51
2019-03-12T06:46:23.775Z,4.52
2019-03-12T06:47:36.192Z,4.52
2019-03-12T06:48:45.938Z,4.53
2019-03-12T06:49:58.330Z,4.53
2019-03-12T06:51:08.109Z,4.54
2019-03-12T06:52:36.107Z,4.53
2019-03-12T06:53:48.864Z,4.51
2019-03-12T06:55:01.397Z,4.48
2019-03-12T06:56:29.174Z,4.46
2019-03-12T06:57:44.354Z,4.49
2019-03-12T06:58:53.933Z,4.53
2019-03-12T07:00:06.586Z,4.59
2019-03-12T07:01:17.247Z,4.64
2019-03-12T07:02:36.173Z,4.67
2019-03-12T07:03:54.933Z,4.71
2019-03-12T07:05:06.065Z,4.74
2019-03-12T07:06:23.205Z,4.74
2019-03-12T07:07:41.592Z,4.73
2019-03-12T07:08:54.294Z,4.73
2019-03-12T07:10:17.080Z,4.71
2019-03-12T07:11:39.201Z,4.69
2019-03-12T07:13:02.378Z,4.67
2019-03-12T07:14:14.567Z,4.62
2019-03-12T07:15:33.092Z,4.59
2019-03-12T07:16:48.586Z,4.61
2019-03-12T07:18:04.059Z,4.61
2019-03-12T07:19:17.011Z,4.63
2019-03-12T07:20:26.907Z,4.64
2019-03-12T07:21:36.615Z,4.68
2019-03-12T07:22:44.567Z,4.70
2019-03-12T07:24:00.279Z,4.72
2019-03-12T07:25:19.437Z,4.70
2019-03-12T07:26:32.430Z,4.72
2019-03-12T07:27:50.905Z,4.73
2019-03-12T07:29:03.160Z,4.74
2019-03-12T07:30:17.698Z,4.72
2019-03-12T07:31:27.876Z,4.73
2019-03-12T07:32:56.057Z,4.74
2019-03-12T07:34:06.947Z,4.75
2019-03-12T07:35:22.756Z,4.74
2019-03-12T07:36:48.113Z,4.76
2019-03-12T07:38:13.053Z,4.79
2019-03-12T07:39:28.565Z,4.78
2019-03-12T07:40:55.018Z,4.80
2019-03-12T07:42:14.060Z,4.78
2019-03-12T07:43:32.896Z,4.76
2019-03-12T07:44:42.526Z,4.76
2019-03-12T07:45:55.100Z,4.76
2019-03-12T07:47:04.472Z,4.78
2019-03-12T07:48:25.878Z,4.80
2019-03-12T07:49:38.052Z,4.81
2019-03-12T07:51:04.903Z,4.82
2019-03-12T07:52:33.029Z,4.82
2019-03-12T07:53:58.967Z,4.82
2019-03-12T07:54:59.770Z,4.82
2019-03-12T07:56:12.695Z,4.84
2019-03-12T07:57:32.771Z,4.84
2019-03-12T07:58:58.721Z,4.87
2019-03-12T08:00:12.944Z,4.92
2019-03-12T08:01:25.455Z,4.97
2019-03-12T08:02:37.886Z,5.00
2019-03-12T08:03:59.907Z,5.02
2019-03-12T08:05:28.279Z,5.06
2019-03-12T08:06:38.284Z,5.08
2019-03-12T08:07:47.913Z,5.12
2019-03-12T08:08:57.997Z,5.17
2019-03-12T08:10:13.524Z,5.19
2019-03-12T08:11:26.263Z,5.22
2019-03-12T08:12:36.064Z,5.26
2019-03-12T08:13:45.607Z,5.28
2019-03-12T08:14:58.301Z,5.29
2019-03-12T08:16:08.870Z,5.28
2019-03-12T08:17:17.089Z,5.23
2019-03-12T08:18:30.786Z,5.21
2019-03-12T08:19:43.381Z,5.21
2019-03-12T08:20:55.986Z,5.24
2019-03-12T08:22:14.521Z,5.28
2019-03-12T08:23:30.315Z,5.33
2019-03-12T08:24:40.174Z,5.40
2019-03-12T08:26:05.124Z,5.49
2019-03-12T08:27:14.587Z,5.53
2019-03-12T08:28:24.195Z,5.59
2019-03-12T08:29:33.867Z,5.64
2019-03-12T08:30:49.307Z,5.68
2019-03-12T08:31:59.163Z,5.69
2019-03-12T08:33:14.916Z,5.75
2019-03-12T08:34:30.440Z,5.83
2019-03-12T08:35:42.904Z,5.91
2019-03-12T08:36:53.436Z,6.00
2019-03-12T08:38:06.115Z,6.04
2019-03-12T08:39:15.963Z,6.10
2019-03-12T08:40:31.663Z,6.11
2019-03-12T08:41:53.732Z,6.16
2019-03-12T08:43:15.648Z,6.21
2019-03-12T08:44:31.586Z,6.24
2019-03-12T08:45:45.425Z,6.30
2019-03-12T08:46:50.794Z,6.35
2019-03-12T08:48:04.644Z,6.40
2019-03-12T08:49:17.285Z,6.41
2019-03-12T08:50:25.182Z,6.41
2019-03-12T08:51:51.002Z,6.35
2019-03-12T08:52:58.832Z,6.29
2019-03-12T08:54:11.503Z,6.27
2019-03-12T08:55:26.062Z,6.28
2019-03-12T08:56:35.676Z,6.21
2019-03-12T08:57:57.719Z,6.20
2019-03-12T08:59:16.033Z,6.20
2019-03-12T09:00:34.927Z,6.22
2019-03-12T09:01:47.413Z,6.19
2019-03-12T09:02:54.284Z,6.16
2019-03-12T09:04:09.729Z,6.15
2019-03-12T09:05:19.170Z,6.16
2019-03-12T09:06:41.147Z,6.18
2019-03-12T09:08:07.285Z,6.18
2019-03-12T09:09:33.201Z,6.20
2019-03-12T09:10:58.092Z,6.28
2019-03-12T09:12:11.692Z,6.24
2019-03-12T09:13:21.256Z,6.22
2019-03-12T09:14:30.985Z,6.25
2019-03-12T09:15:52.910Z,6.30
2019-03-12T09:17:03.932Z,6.36
2019-03-12T09:18:11.831Z,6.41
2019-03-12T09:19:27.461Z,6.46
2019-03-12T09:20:55.611Z,6.50
2019-03-12T09:22:06.361Z,6.53
2019-03-12T09:23:14.573Z,6.48
2019-03-12T09:24:40.029Z,6.47
2019-03-12T09:25:50.670Z,6.41
2019-03-12T09:27:07.116Z,6.32
2019-03-12T09:28:22.717Z,6.29
2019-03-12T09:29:32.192Z,6.27
2019-03-12T09:30:58.240Z,6.24
2019-03-12T09:32:08.895Z,6.26
2019-03-12T09:33:35.008Z,6.30
2019-03-12T09:34:45.073Z,6.36
2019-03-12T09:36:03.910Z,6.42
2019-03-12T09:37:18.215Z,6.49
2019-03-12T09:38:30.529Z,6.57
2019-03-12T09:39:42.941Z,6.65
2019-03-12T09:41:01.729Z,6.71
2019-03-12T09:42:19.412Z,6.78
2019-03-12T09:43:29.918Z,6.81
2019-03-12T09:44:45.653Z,6.91
2019-03-12T09:46:07.002Z,7.01
2019-03-12T09:47:19.440Z,7.10
2019-03-12T09:48:35.450Z,7.16
2019-03-12T09:49:45.053Z,7.15
2019-03-12T09:50:54.749Z,7.14
2019-03-12T09:52:07.368Z,7.12
2019-03-12T09:53:25.631Z,7.14
2019-03-12T09:54:42.434Z,7.05
2019-03-12T09:55:52.188Z,7.02
2019-03-12T09:57:10.956Z,7.04
2019-03-12T09:58:20.572Z,7.07
2019-03-12T09:59:38.892Z,7.14
2019-03-12T10:00:48.407Z,7.24
2019-03-12T10:02:13.986Z,7.30
2019-03-12T10:03:33.172Z,7.34
2019-03-12T10:04:51.722Z,7.42
2019-03-12T10:06:10.154Z,7.53
2019-03-12T10:07:35.355Z,7.64
2019-03-12T10:08:45.699Z,7.78
2019-03-12T10:10:08.413Z,7.92
2019-03-12T10:11:18.021Z,8.02
2019-03-12T10:12:27.915Z,8.10
2019-03-12T10:13:43.261Z,8.20
2019-03-12T10:14:52.766Z,8.34
2019-03-12T10:16:02.758Z,8.49
2019-03-12T10:17:26.110Z,8.59
2019-03-12T10:18:38.612Z,8.68
2019-03-12T10:19:57.351Z,8.71
2019-03-12T10:21:21.740Z,8.70
2019-03-12T10:22:33.983Z,8.67
2019-03-12T10:23:48.139Z,8.59
2019-03-12T10:25:02.035Z,8.55
2019-03-12T10:26:21.067Z,8.48
2019-03-12T10:27:35.098Z,8.46
2019-03-12T10:28:51.797Z,8.49
2019-03-12T10:30:07.775Z,8.49
2019-03-12T10:31:33.899Z,8.46
2019-03-12T10:32:43.630Z,8.47
2019-03-12T10:33:56.212Z,8.50
2019-03-12T10:35:07.750Z,8.57
2019-03-12T10:36:27.138Z,8.67
2019-03-12T10:37:45.775Z,8.81
2019-03-12T10:40:07.174Z,8.95
2019-03-12T10:41:16.887Z,9.06
2019-03-12T10:42:33.465Z,9.21
2019-03-12T10:43:42.397Z,9.19
2019-03-12T10:44:56.486Z,9.16
2019-03-12T10:46:08.859Z,9.15
2019-03-12T10:47:24.595Z,9.13
2019-03-12T10:48:32.902Z,9.06
2019-03-12T10:49:41.100Z,9.03
2019-03-12T10:50:49.300Z,9.00
2019-03-12T10:51:57.466Z,9.00
2019-03-12T10:53:05.726Z,8.98
2019-03-12T10:54:13.988Z,8.94
2019-03-12T10:55:22.120Z,8.92
2019-03-12T10:56:30.294Z,8.96
2019-03-12T10:57:38.524Z,8.98
2019-03-12T10:58:46.624Z,9.05
2019-03-12T10:59:54.769Z,9.14
2019-03-12T11:01:02.839Z,9.24
2019-03-12T11:02:10.918Z,9.40
2019-03-12T11:03:18.909Z,9.52
2019-03-12T11:04:26.935Z,9.65
2019-03-12T11:05:45.508Z,9.72
2019-03-12T11:06:44.926Z,9.77
2019-03-12T11:07:53.314Z,9.82
2019-03-12T11:09:01.714Z,9.90
2019-03-12T11:10:16.199Z,10.01
2019-03-12T11:11:24.654Z,10.10
2019-03-12T11:12:33.100Z,10.16
2019-03-12T11:13:41.476Z,10.19
2019-03-12T11:14:49.808Z,10.22
2019-03-12T11:15:58.003Z,10.24
2019-03-12T11:17:06.034Z,10.28
2019-03-12T11:18:14.357Z,10.34
2019-03-12T11:19:22.999Z,10.45
2019-03-12T11:20:31.033Z,10.57
2019-03-12T11:21:38.905Z,10.64
2019-03-12T11:22:47.173Z,10.74
2019-03-12T11:23:55.276Z,10.80
2019-03-12T11:25:03.374Z,10.88
2019-03-12T11:26:11.512Z,10.96
2019-03-12T11:27:19.644Z,11.01
2019-03-12T11:28:27.665Z,11.08
2019-03-12T11:29:35.872Z,11.18
2019-03-12T11:30:44.061Z,11.28
2019-03-12T11:31:52.190Z,11.30
2019-03-12T11:33:00.677Z,11.34
2019-03-12T11:34:08.983Z,11.35
2019-03-12T11:35:17.179Z,11.29
2019-03-12T11:36:26.235Z,11.13
2019-03-12T11:37:34.568Z,11.02
2019-03-12T11:38:42.597Z,10.90
2019-03-12T11:39:50.830Z,10.80
2019-03-12T11:40:59.022Z,10.74
2019-03-12T11:42:07.144Z,10.68
2019-03-12T11:43:15.129Z,10.59
2019-03-12T11:44:23.713Z,10.55
2019-03-12T11:45:36.683Z,10.45
2019-03-12T11:46:45.181Z,10.41
2019-03-12T11:47:51.811Z,10.35
2019-03-12T11:49:00.300Z,10.26
2019-03-12T11:50:15.741Z,10.23
2019-03-12T11:51:24.607Z,10.21
2019-03-12T11:52:33.112Z,10.24
2019-03-12T11:53:41.204Z,10.31
2019-03-12T11:54:49.473Z,10.43
2019-03-12T11:55:57.873Z,10.58
2019-03-12T11:57:06.001Z,10.78
2019-03-12T11:58:14.364Z,10.96
2019-03-12T11:59:22.734Z,11.09
2019-03-12T12:00:35.509Z,11.23
2019-03-12T12:01:43.776Z,11.27
2019-03-12T12:03:00.035Z,11.27
2019-03-12T12:04:01.930Z,11.32
2019-03-12T12:05:10.638Z,11.32
2019-03-12T12:06:18.671Z,11.25
2019-03-12T12:07:27.013Z,11.16
2019-03-12T12:08:35.014Z,11.08
2019-03-12T12:09:43.089Z,11.02
2019-03-12T12:10:51.564Z,10.97
2019-03-12T12:11:59.957Z,10.90
2019-03-12T12:13:08.227Z,10.86
2019-03-12T12:14:16.522Z,10.78
2019-03-12T12:15:25.560Z,10.74
2019-03-12T12:16:34.080Z,10.72
2019-03-12T12:17:42.262Z,10.71
2019-03-12T12:18:50.569Z,10.77
2019-03-12T12:19:58.662Z,10.86
2019-03-12T12:21:06.817Z,10.97
2019-03-12T12:22:14.844Z,11.11
2019-03-12T12:23:23.047Z,11.28
2019-03-12T12:24:31.105Z,11.35
2019-03-12T12:25:39.645Z,11.37
2019-03-12T12:26:47.637Z,11.44
2019-03-12T12:27:56.256Z,11.54
2019-03-12T12:29:04.570Z,11.60
2019-03-12T12:30:24.990Z,11.68
2019-03-12T12:31:33.239Z,11.78
2019-03-12T12:32:41.162Z,11.93
2019-03-12T12:33:49.538Z,11.96
2019-03-12T12:34:57.532Z,12.05
2019-03-12T12:36:05.722Z,12.14
2019-03-12T12:37:13.944Z,12.20
2019-03-12T12:38:22.433Z,12.19
2019-03-12T12:39:30.895Z,12.18
2019-03-12T12:40:38.729Z,12.14
2019-03-12T12:41:46.642Z,12.07
2019-03-12T12:42:54.428Z,12.02
2019-03-12T12:44:02.503Z,12.01
2019-03-12T12:45:21.157Z,12.05
2019-03-12T12:46:29.519Z,12.08
2019-03-12T12:47:37.513Z,12.14
2019-03-12T12:48:46.056Z,12.18
2019-03-12T12:49:54.150Z,12.15
2019-03-12T12:51:03.666Z,12.09
2019-03-12T12:52:11.900Z,12.02
2019-03-12T12:53:20.224Z,12.00
2019-03-12T12:54:28.544Z,12.02
2019-03-12T12:55:36.494Z,12.08
2019-03-12T12:56:44.573Z,12.11
2019-03-12T12:57:52.694Z,12.06
2019-03-12T12:59:02.320Z,12.08
2019-03-12T13:00:24.223Z,12.05
2019-03-12T13:01:32.983Z,11.95
2019-03-12T13:02:41.057Z,11.90
2019-03-12T13:03:49.230Z,11.93
2019-03-12T13:04:57.330Z,11.99
2019-03-12T13:06:05.372Z,12.12
2019-03-12T13:07:13.338Z,12.23
2019-03-12T13:08:21.313Z,12.37
2019-03-12T13:09:29.794Z,12.49
2019-03-12T13:10:37.915Z,12.61
2019-03-12T13:11:45.950Z,12.69
2019-03-12T13:12:54.366Z,12.77
2019-03-12T13:14:02.233Z,12.85
2019-03-12T13:15:12.461Z,12.93
2019-03-12T13:16:24.939Z,12.91
2019-03-12T13:17:30.301Z,12.89
2019-03-12T13:18:38.691Z,12.89
2019-03-12T13:19:46.976Z,12.88
2019-03-12T13:20:55.244Z,12.80
2019-03-12T13:22:03.594Z,12.69
2019-03-12T13:23:11.766Z,12.65
2019-03-12T13:24:19.853Z,12.58
2019-03-12T13:25:28.210Z,12.51
2019-03-12T13:26:36.504Z,12.43
2019-03-12T13:27:44.617Z,12.35
2019-03-12T13:28:52.634Z,12.28
2019-03-12T13:30:00.596Z,12.18
2019-03-12T13:31:08.932Z,12.07
2019-03-12T13:32:17.026Z,11.98
2019-03-12T13:33:25.173Z,11.90
2019-03-12T13:34:33.415Z,11.82
2019-03-12T13:35:41.471Z,11.69
2019-03-12T13:36:49.574Z,11.60
2019-03-12T13:37:57.626Z,11.53
2019-03-12T13:39:07.508Z,11.50
2019-03-12T13:40:27.205Z,11.56
2019-03-12T13:41:35.620Z,11.68
2019-03-12T13:42:43.684Z,11.87
2019-03-12T13:43:51.717Z,12.02
2019-03-12T13:45:00.726Z,12.18
2019-03-12T13:46:09.505Z,12.24
2019-03-12T13:47:17.789Z,12.32
2019-03-12T13:48:26.657Z,12.42
2019-03-12T13:49:34.783Z,12.54
2019-03-12T13:50:42.936Z,12.62
2019-03-12T13:51:50.891Z,12.65
2019-03-12T13:52:58.786Z,12.65
2019-03-12T13:54:09.573Z,12.63
2019-03-12T13:55:17.388Z,12.59
2019-03-12T13:56:25.406Z,12.54
2019-03-12T13:57:33.769Z,12.52
2019-03-12T13:58:41.765Z,12.52
2019-03-12T13:59:49.678Z,12.57
2019-03-12T14:00:57.817Z,12.64
2019-03-12T14:02:05.890Z,12.69
2019-03-12T14:03:13.839Z,12.81
2019-03-12T14:04:21.938Z,12.90
2019-03-12T14:05:30.154Z,12.95
2019-03-12T14:06:38.295Z,12.90
2019-03-12T14:07:46.443Z,12.86
2019-03-12T14:08:54.635Z,12.81
2019-03-12T14:10:02.803Z,12.80
2019-03-12T14:11:10.761Z,12.77
2019-03-12T14:12:18.884Z,12.77
2019-03-12T14:13:26.889Z,12.69
2019-03-12T14:14:35.144Z,12.69
2019-03-12T14:15:43.127Z,12.67
2019-03-12T14:16:51.012Z,12.64
2019-03-12T14:17:59.439Z,12.62
2019-03-12T14:19:07.700Z,12.63
2019-03-12T14:20:59.744Z,12.64
2019-03-12T14:22:08.164Z,12.70
2019-03-12T14:23:35.193Z,12.81
2019-03-12T14:24:43.271Z,12.89
2019-03-12T14:25:51.863Z,13.00
2019-03-12T14:26:59.983Z,13.05
2019-03-12T14:28:08.310Z,13.12
2019-03-12T14:29:16.335Z,13.16
2019-03-12T14:30:24.431Z,13.23
2019-03-12T14:31:32.695Z,13.28
2019-03-12T14:32:41.598Z,13.30
2019-03-12T14:33:49.648Z,13.30
2019-03-12T14:34:57.741Z,13.27
2019-03-12T14:36:06.205Z,13.27
2019-03-12T14:37:14.494Z,13.27
2019-03-12T14:38:22.700Z,13.25
2019-03-12T14:39:31.110Z,13.26
2019-03-12T14:40:39.344Z,13.24
2019-03-12T14:41:47.284Z,13.24
2019-03-12T14:42:55.327Z,13.27
2019-03-12T14:44:03.497Z,13.27
2019-03-12T14:45:13.236Z,13.20
2019-03-12T14:46:21.481Z,13.18
2019-03-12T14:47:29.617Z,13.06
2019-03-12T14:48:46.146Z,12.85
2019-03-12T14:49:54.372Z,12.74
2019-03-12T14:51:02.521Z,12.63
2019-03-12T14:52:12.557Z,12.56
2019-03-12T14:53:22.064Z,12.49
2019-03-12T14:54:30.487Z,12.40
2019-03-12T14:55:38.496Z,12.36
2019-03-12T14:56:46.883Z,12.37
2019-03-12T14:57:54.976Z,12.39
2019-03-12T14:59:04.102Z,12.42
2019-03-12T15:00:21.703Z,12.45
2019-03-12T15:01:29.915Z,12.49
2019-03-12T15:02:37.876Z,12.48
2019-03-12T15:03:45.645Z,12.47
2019-03-12T15:04:55.005Z,12.43
2019-03-12T15:06:02.961Z,12.42
2019-03-12T15:07:11.215Z,12.43
2019-03-12T15:08:19.482Z,12.46
2019-03-12T15:09:27.635Z,12.49
2019-03-12T15:10:35.540Z,12.49
2019-03-12T15:11:43.743Z,12.50
2019-03-12T15:12:51.666Z,12.50
2019-03-12T15:13:59.887Z,12.49
2019-03-12T15:15:11.413Z,12.43
2019-03-12T15:16:19.367Z,12.36
2019-03-12T15:17:27.313Z,12.23
2019-03-12T15:18:35.259Z,12.18
2019-03-12T15:19:43.267Z,12.11
2019-03-12T15:20:51.558Z,12.10
2019-03-12T15:21:59.901Z,12.08
2019-03-12T15:23:08.574Z,12.06
2019-03-12T15:24:16.881Z,12.06
2019-03-12T15:25:24.901Z,12.02
2019-03-12T15:26:33.146Z,11.97
2019-03-12T15:27:41.398Z,11.92
2019-03-12T15:28:49.722Z,11.83